Arnold, North Carolina
Current Conditions -  °F | °C
As of 8:55 PM on Monday 20 Oct 2014 (Local Time) from KEXX Reporting Station
Scattered Clouds Scattered Clouds  
Wind Chill: 14°   Ceiling: Unl
Heat Index: 14°   Visibility: 10mi
Dew Point: 10°   Wind: 0mph
Humidity: 77%   Direction: NA
Pressure: 29.99"   Gusts: NA
Location:  35.7974°N, 80.2541°W
Report Text: KEXX 210055Z AUTO 00000KT 10SM SCT110 14/10 A2999 RMK AO2 T01350096
Loading
Personal Weather Stations






























Interactive Weather Map
Tropical Storm Tracking
New forecast layout! Learn more

10-Day Weather Forecast

Advertisements
Track Severe Weather on mobile